CheckWX is a tool to help pilots better visualize weather data.  It is not intended as a substitute for an official pre-flight weather briefing.

04:12:51 UTC

KAEX TAF
Alexandria International Airport
Alexandria, Louisiana, USA
KAEX 010520Z 0106/0206 05005KT P6SM BKN200

Jun-1@
06:00 UTC

Jun-1 @ 06:00 UTC

Jun-2@
06:00 UTC

Jun-2 @ 06:00 UTC

TAF KAEX 010520Z 0106/0206 05005KT P6SM BKN200
Wind
  • 050° at 5 KTS
Cloud Levels
  • Broken at 20,000' AGL